Lake Clear, NY

5:07 PM EDT on September 30, 2014 (GMT -0400)
Adirondack Regional | Change Station
CLOSE
Current Station
Airport
Location: Saranac Lake,
Elevation: 1660 ft
Nearby Weather Stations

Elev 1660 ft 44.39 °N, 74.21 °W | Updated 1 hour ago

Overcast
Overcast
68 °F
Feels Like 68 °F
N
9
Wind Variable Wind from ENE

Today
High -- | Low -- °F
--% Chance of Precip.
Yesterday
High -- | Low -- °F
Precip. -- in
6:53 AM 6:39 PM
Waxing Crescent, 40% visible
Pressure 29.95 in
Visibility 10.0 miles
Clouds Scattered Clouds 5000 ft
Mostly Cloudy 6000 ft
Overcast 8500 ft
Dew Point 53 °F
Humidity 59%
Rainfall 0.00 in
Snow Depth Not available.
UV 1 out of 12
Pollen 1.40 out of 12
Air Quality Not available.
Flu Activity Not available.
METAR KSLK 301951Z AUTO 06008KT 10SM SCT050 BKN060 OVC085 20/12 A2994 RMK AO2 SLP140 T02000117

More Conditions Fewer Conditions

Pressure 29.95 in
Visibility 10.0 miles
Clouds Scattered Clouds 5000 ft
Mostly Cloudy 6000 ft
Overcast 8500 ft
Dew Point 53 °F
Humidity 59%
Rainfall 0.00 in
Snow Depth Not available.
UV 1 out of 12
Pollen 1.40 out of 12
Air Quality Not available.
Flu Activity Not available.
METAR KSLK 301951Z AUTO 06008KT 10SM SCT050 BKN060 OVC085 20/12 A2994 RMK AO2 SLP140 T02000117

More Conditions Fewer Conditions

10-Day Weather Forecast

Almanac

Astronomy

Sep. 30, 2014 Rise Set
Actual Time 6:53 AM EDT 6:39 PM EDT
Civil Twilight 6:24 AM EDT 7:08 PM EDT
Nautical Twilight 5:50 AM EDT 7:41 PM EDT
Astronomical Twilight 5:16 AM EDT 8:16 PM EDT
Moon 1:09 PM EDT 10:56 PM EDT
Length of Visible Light 12h 43m
Length of Day
11h 46m
Tomorrow will be 3m 2s shorter.
Waxing Crescent, 40% of the Moon is Illuminated
Today
Waxing Crescent
Oct 1
First Quarter
Oct 8
Full
Oct 15
Last Quarter
Oct 23
New

Today's Extremes

State Highs State Lows

Community

WunderPhotos

Upload Photos

1,757,749 photos uploaded!

Nearby

Air Quality

  Air Quality AQ Index Pollutant
Tuesday Good
PM2.5
Tuesday Good
OZONE
Wednesday Good
PM2.5

Snow Depth

Station Depth Elevation
No new snow has been reported.

Earthquake Activity

City Distance Mag. Time & Date
No recent earthquake activity has been reported nearby.
Minimum magnitude displayed is 2.5.

Coastal Water Temperatures

Place Temperature
No Stations Reporting

Nearby Weather Stations